createdAt,value
2018-04-25T00:01:31.060Z,13.00
2018-04-25T00:03:58.550Z,13.00
2018-04-25T00:06:26.072Z,13.00
2018-04-25T00:08:53.604Z,13.10
2018-04-25T00:11:21.067Z,13.10
2018-04-25T00:13:49.342Z,13.10
2018-04-25T00:16:17.604Z,13.00
2018-04-25T00:18:45.165Z,13.00
2018-04-25T00:21:12.672Z,13.10
2018-04-25T00:23:40.166Z,13.00
2018-04-25T00:26:07.686Z,13.00
2018-04-25T00:28:35.212Z,13.00
2018-04-25T00:31:03.461Z,13.00
2018-04-25T00:33:30.986Z,13.00
2018-04-25T00:35:58.503Z,13.00
2018-04-25T00:38:26.061Z,13.00
2018-04-25T00:40:54.323Z,12.90
2018-04-25T00:43:21.869Z,12.90
2018-04-25T00:45:50.946Z,12.90
2018-04-25T00:48:18.465Z,12.90
2018-04-25T00:50:45.969Z,12.90
2018-04-25T00:53:13.458Z,12.90
2018-04-25T00:55:40.994Z,12.90
2018-04-25T00:58:08.505Z,12.90
2018-04-25T01:00:36.000Z,12.90
2018-04-25T01:03:03.530Z,12.90
2018-04-25T01:05:31.049Z,12.90
2018-04-25T01:07:59.327Z,12.90
2018-04-25T01:10:26.822Z,12.90
2018-04-25T01:12:54.364Z,13.00
2018-04-25T01:15:21.864Z,13.00
2018-04-25T01:17:49.357Z,12.90
2018-04-25T01:20:17.674Z,13.00
2018-04-25T01:22:46.689Z,13.00
2018-04-25T01:25:18.926Z,13.00
2018-04-25T01:30:51.778Z,13.00
2018-04-25T01:33:23.999Z,13.00
2018-04-25T01:35:53.983Z,13.00
2018-04-25T01:38:22.238Z,13.10
2018-04-25T01:40:50.514Z,13.00
2018-04-25T01:43:19.959Z,13.00
2018-04-25T01:49:06.202Z,13.10
2018-04-25T01:51:45.526Z,13.10
2018-04-25T01:54:25.012Z,13.10
2018-04-25T01:57:05.004Z,13.20
2018-04-25T01:59:44.353Z,13.20
2018-04-25T02:05:35.903Z,13.10
2018-04-25T02:08:03.414Z,13.20
2018-04-25T02:10:30.915Z,13.20
2018-04-25T02:12:58.437Z,13.30
2018-04-25T02:15:25.973Z,13.30
2018-04-25T02:17:53.475Z,13.50
2018-04-25T02:20:21.742Z,13.60
2018-04-25T02:22:50.006Z,13.60
2018-04-25T02:25:17.527Z,13.60
2018-04-25T02:27:45.000Z,13.70
2018-04-25T02:30:12.505Z,13.70
2018-04-25T02:32:39.997Z,13.80
2018-04-25T02:35:07.502Z,13.90
2018-04-25T02:37:35.833Z,14.00
2018-04-25T02:40:03.337Z,13.90
2018-04-25T02:42:31.619Z,14.00
2018-04-25T02:44:59.881Z,14.00
2018-04-25T02:47:27.397Z,14.00
2018-04-25T02:49:54.895Z,14.10
2018-04-25T02:52:22.396Z,14.10
2018-04-25T02:54:49.948Z,14.20
2018-04-25T02:57:17.447Z,14.30
2018-04-25T02:59:44.974Z,14.30
2018-04-25T03:02:12.527Z,14.30
2018-04-25T03:04:40.023Z,14.30
2018-04-25T03:07:07.556Z,14.40
2018-04-25T03:09:35.071Z,14.50
2018-04-25T03:12:02.586Z,14.50
2018-04-25T03:14:30.147Z,14.50
2018-04-25T03:16:57.787Z,14.40
2018-04-25T03:19:25.985Z,14.40
2018-04-25T03:21:53.469Z,14.40
2018-04-25T03:24:21.746Z,14.30
2018-04-25T03:26:49.995Z,14.30
2018-04-25T03:29:18.296Z,14.30
2018-04-25T03:31:45.797Z,14.30
2018-04-25T03:34:13.316Z,14.20
2018-04-25T03:36:41.585Z,14.10
2018-04-25T03:39:09.851Z,14.10
2018-04-25T03:41:37.348Z,14.10
2018-04-25T03:44:04.834Z,14.10
2018-04-25T03:46:32.387Z,14.10
2018-04-25T03:48:59.864Z,14.10
2018-04-25T03:51:27.440Z,14.10
2018-04-25T03:53:54.950Z,14.00
2018-04-25T03:56:22.461Z,14.10
2018-04-25T03:58:49.959Z,14.00
2018-04-25T04:01:17.514Z,14.10
2018-04-25T04:03:45.761Z,14.10
2018-04-25T04:06:14.063Z,14.20
2018-04-25T04:08:41.587Z,14.20
2018-04-25T04:11:09.139Z,14.20
2018-04-25T04:13:37.448Z,14.40
2018-04-25T04:16:04.940Z,14.40
2018-04-25T04:18:32.438Z,14.40
2018-04-25T04:20:59.967Z,14.50
2018-04-25T04:23:27.466Z,14.50
2018-04-25T04:25:55.773Z,14.50
2018-04-25T04:28:23.293Z,14.50
2018-04-25T04:30:50.826Z,14.40
2018-04-25T04:33:18.328Z,14.50
2018-04-25T04:35:45.842Z,14.60
2018-04-25T04:38:13.347Z,14.70
2018-04-25T04:40:40.939Z,14.60
2018-04-25T04:43:09.387Z,14.50
2018-04-25T04:45:36.836Z,14.50
2018-04-25T04:48:04.408Z,14.60
2018-04-25T04:50:31.951Z,14.50
2018-04-25T04:53:00.363Z,14.40
2018-04-25T04:55:27.981Z,14.40
2018-04-25T04:57:55.500Z,14.40
2018-04-25T05:00:23.115Z,14.50
2018-04-25T05:02:50.870Z,14.40
2018-04-25T05:05:18.423Z,14.50
2018-04-25T05:07:45.957Z,14.50
2018-04-25T05:10:13.518Z,14.50
2018-04-25T05:12:41.090Z,14.50
2018-04-25T05:15:08.634Z,14.50
2018-04-25T05:17:36.158Z,14.60
2018-04-25T05:20:03.652Z,14.70
2018-04-25T05:22:31.933Z,14.70
2018-04-25T05:24:59.517Z,14.70
2018-04-25T05:27:27.568Z,14.70
2018-04-25T05:29:55.105Z,14.90
2018-04-25T05:32:22.593Z,14.90
2018-04-25T05:34:50.916Z,14.90
2018-04-25T05:37:18.482Z,14.80
2018-04-25T05:39:45.985Z,15.00
2018-04-25T05:42:14.228Z,15.30
2018-04-25T05:44:41.786Z,15.30
2018-04-25T05:47:09.405Z,15.50
2018-04-25T05:49:36.891Z,15.60
2018-04-25T05:52:04.422Z,15.80
2018-04-25T05:54:31.918Z,15.90
2018-04-25T05:56:59.514Z,16.20
2018-04-25T05:59:27.773Z,16.70
2018-04-25T06:01:55.396Z,16.60
2018-04-25T06:04:22.991Z,16.90
2018-04-25T06:06:52.006Z,17.20
2018-04-25T06:09:19.512Z,17.10
2018-04-25T06:11:47.037Z,17.30
2018-04-25T06:14:14.534Z,17.40
2018-04-25T06:16:42.094Z,17.60
2018-04-25T06:19:09.591Z,17.80
2018-04-25T06:21:37.093Z,17.90
2018-04-25T06:24:04.630Z,18.00
2018-04-25T06:26:32.215Z,18.10
2018-04-25T06:28:59.657Z,18.20
2018-04-25T06:31:27.171Z,18.30
2018-04-25T06:33:54.710Z,18.30
2018-04-25T06:36:22.211Z,18.40
2018-04-25T06:38:49.699Z,18.40
2018-04-25T06:41:17.189Z,18.40
2018-04-25T06:43:44.701Z,18.40
2018-04-25T06:46:12.219Z,18.40
2018-04-25T06:48:40.493Z,18.30
2018-04-25T06:51:08.751Z,18.20
2018-04-25T06:53:37.028Z,18.30
2018-04-25T06:56:04.522Z,18.20
2018-04-25T06:58:32.130Z,18.30
2018-04-25T07:00:59.647Z,18.30
2018-04-25T07:03:27.199Z,18.30
2018-04-25T07:05:54.705Z,18.40
2018-04-25T07:08:22.210Z,18.50
2018-04-25T07:10:49.728Z,18.60
2018-04-25T07:13:17.299Z,18.60
2018-04-25T07:15:45.592Z,18.60
2018-04-25T07:18:14.145Z,18.60
2018-04-25T07:20:41.690Z,18.70
2018-04-25T07:23:09.179Z,18.70
2018-04-25T07:25:37.434Z,18.90
2018-04-25T07:28:04.975Z,18.80
2018-04-25T07:30:32.473Z,18.90
2018-04-25T07:33:00.769Z,18.90
2018-04-25T07:35:28.315Z,18.90
2018-04-25T07:37:56.618Z,18.90
2018-04-25T07:40:24.377Z,18.90
2018-04-25T07:42:51.915Z,18.80
2018-04-25T07:45:20.196Z,18.80
2018-04-25T07:47:47.766Z,18.80
2018-04-25T07:50:15.287Z,18.80
2018-04-25T07:52:42.790Z,18.60
2018-04-25T07:55:10.284Z,18.50
2018-04-25T07:57:37.800Z,18.50
2018-04-25T08:00:05.305Z,18.70
2018-04-25T08:02:32.791Z,18.70
2018-04-25T08:05:01.117Z,18.90
2018-04-25T08:07:29.392Z,18.90
2018-04-25T08:09:56.876Z,18.90
2018-04-25T08:12:37.028Z,19.10
2018-04-25T08:15:16.317Z,19.10
2018-04-25T08:17:55.792Z,19.20
2018-04-25T08:20:35.225Z,19.20
2018-04-25T08:23:02.737Z,19.20
2018-04-25T08:25:30.229Z,19.20
2018-04-25T08:27:57.780Z,19.30
2018-04-25T08:30:25.254Z,19.30
2018-04-25T08:32:52.747Z,19.30
2018-04-25T08:35:20.303Z,19.30
2018-04-25T08:37:48.233Z,19.30
2018-04-25T08:40:16.520Z,19.40
2018-04-25T08:42:44.019Z,19.40
2018-04-25T08:45:11.617Z,19.40
2018-04-25T08:47:39.810Z,19.30
2018-04-25T08:50:07.314Z,19.20
2018-04-25T08:52:34.867Z,19.20
2018-04-25T08:55:02.362Z,19.30
2018-04-25T08:57:29.869Z,19.20
2018-04-25T08:59:58.120Z,19.50
2018-04-25T09:02:25.630Z,19.50
2018-04-25T09:04:53.133Z,19.50
2018-04-25T09:07:20.648Z,19.50
2018-04-25T09:09:48.163Z,19.60
2018-04-25T09:12:15.731Z,19.80
2018-04-25T09:14:43.992Z,19.80
2018-04-25T09:17:11.507Z,19.70
2018-04-25T09:19:39.040Z,19.80
2018-04-25T09:22:06.527Z,19.70
2018-04-25T09:24:34.036Z,19.90
2018-04-25T09:27:02.315Z,20.20
2018-04-25T09:29:30.570Z,20.40
2018-04-25T09:31:58.091Z,20.40
2018-04-25T09:34:25.628Z,20.60
2018-04-25T09:36:53.136Z,20.70
2018-04-25T09:39:20.615Z,20.90
2018-04-25T09:41:48.891Z,21.00
2018-04-25T09:44:17.191Z,20.90
2018-04-25T09:46:44.686Z,20.90
2018-04-25T09:49:12.184Z,21.10
2018-04-25T09:51:40.490Z,21.40
2018-04-25T09:54:07.981Z,21.40
2018-04-25T09:56:35.491Z,21.40
2018-04-25T09:59:03.024Z,21.30
2018-04-25T10:01:31.344Z,21.20
2018-04-25T10:03:58.885Z,21.10
2018-04-25T10:06:27.152Z,21.00
2018-04-25T10:08:55.404Z,21.00
2018-04-25T10:11:23.690Z,21.10
2018-04-25T10:13:52.018Z,21.30
2018-04-25T10:16:19.509Z,21.30
2018-04-25T10:18:46.997Z,21.60
2018-04-25T10:21:15.274Z,21.70
2018-04-25T10:23:42.818Z,21.60
2018-04-25T10:26:11.072Z,21.90
2018-04-25T10:28:38.598Z,21.80
2018-04-25T10:31:06.109Z,21.90
2018-04-25T10:33:34.401Z,21.80
2018-04-25T10:36:02.662Z,21.70
2018-04-25T10:38:31.626Z,21.70
2018-04-25T10:40:59.153Z,21.70
2018-04-25T10:43:26.659Z,21.70
2018-04-25T10:45:54.961Z,22.10
2018-04-25T10:48:22.546Z,22.10
2018-04-25T10:50:50.047Z,22.10
2018-04-25T10:53:17.632Z,22.20
2018-04-25T10:55:45.139Z,22.30
2018-04-25T10:58:12.649Z,22.50
2018-04-25T11:00:40.196Z,22.60
2018-04-25T11:03:08.458Z,23.00
2018-04-25T11:05:35.955Z,23.00
2018-04-25T11:08:03.494Z,23.00
2018-04-25T11:10:31.006Z,23.10
2018-04-25T11:12:59.481Z,23.00
2018-04-25T11:15:27.042Z,22.90
2018-04-25T11:17:54.524Z,22.90
2018-04-25T11:20:22.866Z,22.90
2018-04-25T11:22:51.076Z,22.90
2018-04-25T11:25:18.569Z,22.90
2018-04-25T11:27:46.118Z,22.80
2018-04-25T11:30:13.616Z,22.60
2018-04-25T11:32:41.159Z,22.30
2018-04-25T11:35:08.708Z,21.90
2018-04-25T11:37:36.275Z,21.50
2018-04-25T11:40:03.842Z,21.60
2018-04-25T11:42:31.342Z,21.80
2018-04-25T11:44:58.851Z,22.00
2018-04-25T11:47:26.432Z,22.20
2018-04-25T11:49:53.931Z,22.30
2018-04-25T11:52:22.213Z,22.20
2018-04-25T11:54:50.482Z,22.00
2018-04-25T11:57:18.787Z,21.80
2018-04-25T11:59:46.280Z,21.80
2018-04-25T12:02:13.804Z,21.90
2018-04-25T12:04:41.390Z,22.20
2018-04-25T12:07:08.874Z,22.30
2018-04-25T12:09:36.363Z,22.30
2018-04-25T12:12:03.900Z,22.50
2018-04-25T12:14:32.215Z,22.30
2018-04-25T12:16:59.707Z,22.30
2018-04-25T12:19:27.246Z,22.20
2018-04-25T12:21:54.768Z,22.20
2018-04-25T12:24:22.267Z,22.10
2018-04-25T12:26:49.823Z,22.00
2018-04-25T12:29:17.563Z,22.00
2018-04-25T12:31:45.049Z,22.00
2018-04-25T12:34:12.616Z,22.00
2018-04-25T12:36:40.107Z,22.20
2018-04-25T12:39:08.377Z,22.70
2018-04-25T12:41:36.798Z,22.70
2018-04-25T12:44:04.235Z,22.70
2018-04-25T12:46:31.761Z,22.50
2018-04-25T12:49:00.085Z,21.80
2018-04-25T12:51:27.621Z,21.80
2018-04-25T12:53:55.215Z,21.80
2018-04-25T12:56:22.703Z,22.10
2018-04-25T12:58:51.009Z,22.20
2018-04-25T13:01:18.591Z,22.20
2018-04-25T13:03:46.090Z,22.10
2018-04-25T13:06:13.657Z,22.20
2018-04-25T13:08:41.163Z,22.20
2018-04-25T13:11:08.693Z,22.20
2018-04-25T13:13:37.038Z,22.30
2018-04-25T13:16:05.488Z,22.40
2018-04-25T13:18:33.029Z,22.40
2018-04-25T13:21:01.173Z,22.50
2018-04-25T13:23:29.460Z,22.70
2018-04-25T13:25:57.714Z,22.90
2018-04-25T13:28:25.277Z,22.90
2018-04-25T13:30:53.570Z,22.90
2018-04-25T13:33:21.853Z,22.60
2018-04-25T13:35:49.357Z,22.60
2018-04-25T13:38:16.847Z,22.30
2018-04-25T13:40:44.372Z,22.50
2018-04-25T13:43:11.915Z,22.60
2018-04-25T13:45:39.404Z,22.90
2018-04-25T13:48:06.916Z,23.10
2018-04-25T13:50:34.433Z,23.30
2018-04-25T13:53:02.698Z,23.50
2018-04-25T13:55:30.267Z,23.40
2018-04-25T13:57:57.786Z,23.60
2018-04-25T14:00:25.270Z,23.40
2018-04-25T14:02:52.787Z,23.30
2018-04-25T14:05:20.281Z,23.40
2018-04-25T14:07:47.798Z,23.40
2018-04-25T14:10:15.287Z,23.50
2018-04-25T14:12:42.773Z,23.50
2018-04-25T14:15:11.107Z,23.30
2018-04-25T14:17:38.606Z,23.30
2018-04-25T14:20:06.106Z,23.20
2018-04-25T14:22:33.867Z,23.20
2018-04-25T14:25:01.387Z,23.20
2018-04-25T14:27:29.656Z,23.10
2018-04-25T14:29:57.143Z,23.10
2018-04-25T14:32:24.645Z,23.20
2018-04-25T14:34:52.165Z,23.30
2018-04-25T14:37:19.683Z,23.40
2018-04-25T14:39:47.171Z,23.50
2018-04-25T14:42:14.662Z,23.60
2018-04-25T14:44:42.166Z,23.10
2018-04-25T14:47:10.465Z,22.50
2018-04-25T14:49:37.954Z,22.50
2018-04-25T14:52:06.222Z,22.50
2018-04-25T14:54:33.777Z,22.50
2018-04-25T14:57:01.297Z,22.60
2018-04-25T14:59:28.824Z,23.60
2018-04-25T15:01:56.323Z,24.40
2018-04-25T15:04:23.854Z,24.80
2018-04-25T15:06:51.369Z,24.60
2018-04-25T15:09:18.856Z,24.20
2018-04-25T15:11:46.405Z,23.80
2018-04-25T15:14:13.905Z,23.50
2018-04-25T15:16:42.155Z,23.00
2018-04-25T15:19:11.171Z,22.60
2018-04-25T15:21:39.425Z,22.50
2018-04-25T15:24:06.909Z,22.50
2018-04-25T15:26:34.440Z,22.30
2018-04-25T15:29:01.996Z,22.30
2018-04-25T15:31:29.480Z,21.90
2018-04-25T15:33:57.135Z,21.90
2018-04-25T15:36:24.673Z,21.70
2018-04-25T15:38:52.216Z,21.70
2018-04-25T15:41:19.745Z,21.70
2018-04-25T15:43:47.315Z,21.50
2018-04-25T15:46:14.857Z,21.70
2018-04-25T15:48:42.381Z,21.70
2018-04-25T15:51:10.106Z,21.60
2018-04-25T15:53:37.665Z,21.60
2018-04-25T15:56:05.304Z,21.70
2018-04-25T15:58:33.175Z,21.70
2018-04-25T16:01:01.278Z,21.60
2018-04-25T16:03:28.803Z,21.70
2018-04-25T16:05:56.547Z,21.60
2018-04-25T16:08:24.107Z,21.50
2018-04-25T16:10:51.810Z,21.30
2018-04-25T16:13:19.371Z,21.20
2018-04-25T16:15:46.861Z,21.20
2018-04-25T16:18:15.519Z,21.10
2018-04-25T16:20:43.137Z,21.10
2018-04-25T16:23:10.922Z,21.10
2018-04-25T16:25:38.547Z,21.10
2018-04-25T16:28:06.264Z,21.10
2018-04-25T16:30:33.881Z,20.90
2018-04-25T16:33:01.388Z,20.80
2018-04-25T16:35:29.681Z,20.80
2018-04-25T16:37:57.987Z,20.80
2018-04-25T16:40:25.494Z,20.80
2018-04-25T16:42:53.028Z,20.80
2018-04-25T16:45:20.543Z,20.90
2018-04-25T16:47:48.042Z,20.90
2018-04-25T16:50:15.590Z,20.90
2018-04-25T16:52:43.089Z,20.90
2018-04-25T16:55:10.618Z,20.90
2018-04-25T16:57:38.149Z,20.90
2018-04-25T17:00:05.720Z,21.00
2018-04-25T17:02:33.368Z,21.10
2018-04-25T17:05:00.922Z,20.80
2018-04-25T17:07:28.478Z,20.80
2018-04-25T17:09:55.980Z,20.80
2018-04-25T17:12:23.457Z,20.60
2018-04-25T17:14:51.105Z,20.50
2018-04-25T17:17:19.288Z,20.20
2018-04-25T17:19:46.799Z,20.20
2018-04-25T17:22:14.454Z,20.30
2018-04-25T17:24:42.013Z,20.20
2018-04-25T17:27:09.583Z,20.10
2018-04-25T17:29:37.960Z,20.00
2018-04-25T17:32:05.468Z,19.90
2018-04-25T17:34:33.358Z,20.00
2018-04-25T17:37:01.612Z,20.10
2018-04-25T17:39:30.156Z,20.20
2018-04-25T17:41:58.511Z,20.00
2018-04-25T17:44:26.793Z,20.00
2018-04-25T17:46:54.371Z,19.80
2018-04-25T17:49:21.962Z,19.80
2018-04-25T17:51:50.250Z,19.70
2018-04-25T17:54:18.527Z,19.60
2018-04-25T17:56:46.805Z,19.40
2018-04-25T17:59:15.145Z,19.40
2018-04-25T18:01:42.747Z,19.40
2018-04-25T18:04:10.428Z,19.30
2018-04-25T18:06:37.949Z,19.10
2018-04-25T18:09:06.501Z,18.90
2018-04-25T18:11:35.137Z,18.80
2018-04-25T18:14:02.791Z,18.80
2018-04-25T18:16:30.535Z,18.80
2018-04-25T18:18:58.822Z,18.70
2018-04-25T18:21:26.407Z,18.70
2018-04-25T18:23:53.964Z,18.70
2018-04-25T18:26:21.743Z,18.60
2018-04-25T18:28:49.250Z,18.70
2018-04-25T18:31:16.857Z,18.70
2018-04-25T18:33:44.459Z,18.70
2018-04-25T18:36:12.050Z,18.60
2018-04-25T18:38:39.666Z,18.50
2018-04-25T18:41:07.200Z,18.40
2018-04-25T18:43:34.743Z,18.30
2018-04-25T18:46:02.475Z,18.20
2018-04-25T18:48:30.763Z,18.00
2018-04-25T18:50:59.012Z,18.00
2018-04-25T18:53:26.512Z,17.90
2018-04-25T18:55:54.012Z,17.90
2018-04-25T18:58:21.547Z,18.00
2018-04-25T19:00:49.122Z,18.10
2018-04-25T19:03:16.835Z,18.00
2018-04-25T19:05:45.392Z,17.70
2018-04-25T19:08:13.210Z,17.70
2018-04-25T19:10:40.748Z,17.60
2018-04-25T19:13:08.275Z,17.60
2018-04-25T19:15:35.776Z,17.60
2018-04-25T19:18:03.253Z,17.40
2018-04-25T19:20:31.016Z,17.30
2018-04-25T19:22:59.322Z,17.10
2018-04-25T19:25:26.809Z,17.10
2018-04-25T19:27:54.367Z,17.00
2018-04-25T19:30:22.829Z,16.70
2018-04-25T19:32:51.095Z,16.70
2018-04-25T19:35:18.622Z,16.60
2018-04-25T19:37:46.385Z,16.70
2018-04-25T19:40:14.786Z,16.40
2018-04-25T19:42:42.421Z,16.40
2018-04-25T19:45:09.919Z,16.30
2018-04-25T19:47:38.200Z,16.00
2018-04-25T19:50:06.568Z,15.90
2018-04-25T19:52:34.084Z,15.90
2018-04-25T19:55:01.601Z,15.80
2018-04-25T19:57:29.222Z,15.70
2018-04-25T19:59:56.701Z,15.50
2018-04-25T20:02:24.185Z,15.50
2018-04-25T20:04:52.454Z,15.40
2018-04-25T20:07:20.875Z,15.30
2018-04-25T20:09:48.665Z,15.30
2018-04-25T20:12:17.029Z,15.30
2018-04-25T20:14:44.764Z,15.20
2018-04-25T20:17:12.338Z,15.30
2018-04-25T20:19:39.832Z,15.30
2018-04-25T20:22:07.585Z,15.20
2018-04-25T20:24:35.179Z,15.20
2018-04-25T20:27:03.430Z,15.20
2018-04-25T20:29:31.686Z,15.10
2018-04-25T20:31:59.302Z,15.10
2018-04-25T20:34:26.810Z,15.10
2018-04-25T20:36:54.318Z,15.10
2018-04-25T20:39:21.912Z,15.10
2018-04-25T20:41:49.398Z,15.10
2018-04-25T20:44:16.971Z,14.90
2018-04-25T20:46:45.288Z,15.00
2018-04-25T20:49:12.773Z,14.90
2018-04-25T20:51:41.913Z,14.90
2018-04-25T20:54:10.398Z,15.00
2018-04-25T20:56:38.011Z,14.90
2018-04-25T20:59:05.497Z,14.90
2018-04-25T21:01:33.133Z,14.90
2018-04-25T21:04:00.861Z,15.00
2018-04-25T21:06:28.509Z,14.90
2018-04-25T21:08:56.068Z,15.00
2018-04-25T21:11:23.585Z,15.10
2018-04-25T21:13:51.099Z,15.00
2018-04-25T21:16:18.635Z,15.00
2018-04-25T21:18:46.137Z,15.00
2018-04-25T21:21:13.605Z,15.00
2018-04-25T21:23:41.168Z,15.00
2018-04-25T21:26:08.649Z,14.90
2018-04-25T21:28:36.905Z,14.80
2018-04-25T21:31:05.187Z,14.70
2018-04-25T21:33:33.774Z,14.90
2018-04-25T21:36:02.045Z,14.80
2018-04-25T21:38:30.462Z,14.70
2018-04-25T21:40:57.952Z,14.70
2018-04-25T21:43:25.424Z,14.60
2018-04-25T21:45:52.954Z,14.60
2018-04-25T21:48:20.434Z,14.60
2018-04-25T21:50:47.927Z,14.50
2018-04-25T21:53:15.447Z,14.50
2018-04-25T21:55:42.962Z,14.50
2018-04-25T21:58:10.475Z,14.50
2018-04-25T22:00:37.961Z,14.50
2018-04-25T22:03:05.585Z,14.60
2018-04-25T22:05:33.877Z,14.70
2018-04-25T22:08:02.151Z,14.60
2018-04-25T22:10:30.398Z,14.70
2018-04-25T22:12:57.993Z,14.70
2018-04-25T22:15:26.400Z,14.70
2018-04-25T22:17:53.928Z,14.60
2018-04-25T22:20:22.206Z,14.70
2018-04-25T22:22:50.736Z,14.70
2018-04-25T22:25:18.317Z,14.70
2018-04-25T22:27:45.814Z,14.80
2018-04-25T22:30:13.361Z,14.80
2018-04-25T22:32:41.670Z,15.00
2018-04-25T22:35:09.920Z,15.00
2018-04-25T22:37:38.165Z,15.10
2018-04-25T22:40:05.681Z,15.10
2018-04-25T22:42:33.168Z,15.10
2018-04-25T22:45:01.426Z,15.10
2018-04-25T22:47:28.937Z,15.10
2018-04-25T22:49:57.196Z,15.20
2018-04-25T22:52:24.725Z,15.20
2018-04-25T22:54:52.216Z,15.20
2018-04-25T22:57:20.474Z,15.30
2018-04-25T22:59:47.983Z,15.30
2018-04-25T23:02:15.474Z,15.40
2018-04-25T23:04:43.009Z,15.40
2018-04-25T23:07:10.518Z,15.30
2018-04-25T23:09:38.026Z,15.40
2018-04-25T23:12:05.538Z,15.40
2018-04-25T23:14:33.778Z,15.50
2018-04-25T23:17:01.328Z,15.50
2018-04-25T23:19:28.841Z,15.40
2018-04-25T23:21:57.147Z,15.20
2018-04-25T23:24:24.639Z,15.20
2018-04-25T23:26:52.162Z,15.30
2018-04-25T23:29:19.664Z,15.30
2018-04-25T23:31:47.152Z,15.20
2018-04-25T23:34:14.704Z,15.20
2018-04-25T23:36:42.976Z,15.30
2018-04-25T23:39:11.232Z,15.20
2018-04-25T23:41:38.738Z,15.20
2018-04-25T23:44:06.229Z,15.10
2018-04-25T23:46:33.719Z,15.00
2018-04-25T23:49:02.031Z,14.70
2018-04-25T23:51:29.523Z,14.70
2018-04-25T23:53:57.047Z,14.50
2018-04-25T23:56:24.521Z,14.30
2018-04-25T23:58:52.032Z,14.20
